createdAt,value
2023-02-16T00:04:33.083Z,90.41
2023-02-16T00:09:38.908Z,90.65
2023-02-16T00:14:43.270Z,90.67
2023-02-16T00:19:44.849Z,90.53
2023-02-16T00:24:46.551Z,90.74
2023-02-16T00:29:48.299Z,90.67
2023-02-16T00:34:49.950Z,90.78
2023-02-16T00:39:51.645Z,90.69
2023-02-16T00:44:55.841Z,90.90
2023-02-16T00:49:57.731Z,91.11
2023-02-16T00:55:00.858Z,90.94
2023-02-16T01:00:12.869Z,91.06
2023-02-16T01:05:15.328Z,90.98
2023-02-16T01:10:37.972Z,90.90
2023-02-16T01:15:40.750Z,91.06
2023-02-16T01:20:42.649Z,91.20
2023-02-16T01:25:44.453Z,91.38
2023-02-16T01:30:46.372Z,91.25
2023-02-16T01:35:49.822Z,91.14
2023-02-16T01:41:10.420Z,91.42
2023-02-16T01:46:24.682Z,91.53
2023-02-16T01:51:40.177Z,91.71
2023-02-16T01:56:48.134Z,91.49
2023-02-16T02:02:02.439Z,91.98
2023-02-16T02:07:04.450Z,92.04
2023-02-16T02:12:18.510Z,92.56
2023-02-16T02:17:21.392Z,92.88
2023-02-16T02:23:31.711Z,92.67
2023-02-16T02:28:38.913Z,93.04
2023-02-16T02:34:19.580Z,93.31
2023-02-16T02:39:33.622Z,93.33
2023-02-16T02:44:49.125Z,93.71
2023-02-16T02:49:55.212Z,93.62
2023-02-16T02:55:16.004Z,93.65
2023-02-16T03:00:41.152Z,93.90
2023-02-16T03:06:02.380Z,93.93
2023-02-16T03:11:41.980Z,93.64
2023-02-16T03:16:45.497Z,94.30
2023-02-16T03:22:06.438Z,93.94
2023-02-16T03:27:27.789Z,93.88
2023-02-16T03:32:29.634Z,94.07
2023-02-16T03:37:32.355Z,94.48
2023-02-16T03:42:34.161Z,94.94
2023-02-16T03:47:35.837Z,95.19
2023-02-16T03:52:37.518Z,94.81
2023-02-16T03:57:39.216Z,94.98
2023-02-16T04:02:41.036Z,94.77
2023-02-16T04:07:42.684Z,95.20
2023-02-16T04:12:44.762Z,95.25
2023-02-16T04:17:47.674Z,95.48
2023-02-16T04:22:49.749Z,95.34
2023-02-16T04:27:52.029Z,94.85
2023-02-16T04:32:54.126Z,95.23
2023-02-16T04:37:56.312Z,95.32
2023-02-16T04:42:58.158Z,95.45
2023-02-16T04:47:59.943Z,95.57
2023-02-16T04:53:01.754Z,95.63
2023-02-16T04:58:03.426Z,95.71
2023-02-16T05:03:05.174Z,95.99
2023-02-16T05:08:06.927Z,96.29
2023-02-16T05:13:29.770Z,96.73
2023-02-16T05:18:31.483Z,96.89
2023-02-16T05:23:33.157Z,97.09
2023-02-16T05:28:34.895Z,97.40
2023-02-16T05:33:36.689Z,97.31
2023-02-16T05:38:38.493Z,97.82
2023-02-16T05:43:40.306Z,98.28
2023-02-16T05:48:42.108Z,98.31
2023-02-16T05:53:43.898Z,98.07
2023-02-16T05:58:45.704Z,98.46
2023-02-16T06:03:48.153Z,98.74
2023-02-16T06:08:49.917Z,98.64
2023-02-16T06:13:51.629Z,98.67
2023-02-16T06:18:54.307Z,98.59
2023-02-16T06:23:56.586Z,98.28
2023-02-16T06:28:58.789Z,98.29
2023-02-16T06:34:03.773Z,98.41
2023-02-16T06:39:05.707Z,98.32
2023-02-16T06:44:13.501Z,98.10
2023-02-16T06:49:18.232Z,97.91
2023-02-16T06:54:22.804Z,97.63
2023-02-16T06:59:24.582Z,97.23
2023-02-16T07:04:26.696Z,96.70
2023-02-16T07:09:28.474Z,96.28
2023-02-16T07:14:31.810Z,95.57
2023-02-16T07:19:33.824Z,94.98
2023-02-16T07:24:35.551Z,94.30
2023-02-16T07:29:37.149Z,93.28
2023-02-16T07:34:38.848Z,92.33
2023-02-16T07:39:40.547Z,91.50
2023-02-16T07:44:42.103Z,90.46
2023-02-16T07:49:43.747Z,89.84
2023-02-16T07:54:55.532Z,89.08
2023-02-16T07:59:57.828Z,88.76
2023-02-16T08:05:00.243Z,88.15
2023-02-16T08:10:01.941Z,87.38
2023-02-16T08:15:04.473Z,86.83
2023-02-16T08:20:07.795Z,86.44
2023-02-16T08:25:09.571Z,85.93
2023-02-16T08:30:13.020Z,84.16
2023-02-16T08:35:15.382Z,83.74
2023-02-16T08:40:18.146Z,84.03
2023-02-16T08:45:19.998Z,82.94
2023-02-16T08:50:22.465Z,80.31
2023-02-16T08:55:24.125Z,79.93
2023-02-16T09:00:34.601Z,79.40
2023-02-16T09:05:36.402Z,77.73
2023-02-16T09:10:38.659Z,75.54
2023-02-16T09:15:42.946Z,75.12
2023-02-16T09:20:47.091Z,74.80
2023-02-16T09:25:48.889Z,74.11
2023-02-16T09:30:50.873Z,72.90
2023-02-16T09:35:53.166Z,71.52
2023-02-16T09:40:56.829Z,70.55
2023-02-16T09:45:59.381Z,69.80
2023-02-16T09:51:04.311Z,69.52
2023-02-16T09:56:22.727Z,68.68
2023-02-16T10:01:48.088Z,67.83
2023-02-16T10:07:12.020Z,66.78
2023-02-16T10:12:20.881Z,67.20
2023-02-16T10:17:37.900Z,65.62
2023-02-16T10:22:45.809Z,64.03
2023-02-16T10:27:54.990Z,63.85
2023-02-16T10:33:15.735Z,62.68
2023-02-16T10:38:32.268Z,62.20
2023-02-16T10:43:44.037Z,62.47
2023-02-16T10:48:46.662Z,63.04
2023-02-16T10:53:53.020Z,61.98
2023-02-16T10:58:56.573Z,61.68
2023-02-16T11:03:58.894Z,60.46
2023-02-16T11:09:04.261Z,60.65
2023-02-16T11:14:31.311Z,59.89
2023-02-16T11:19:35.526Z,59.96
2023-02-16T11:24:38.312Z,59.98
2023-02-16T11:29:41.049Z,59.80
2023-02-16T11:34:49.221Z,59.90
2023-02-16T11:40:26.094Z,59.21
2023-02-16T11:45:31.874Z,58.98
2023-02-16T11:50:39.837Z,59.07
2023-02-16T11:55:48.177Z,58.01
2023-02-16T12:01:09.764Z,58.06
2023-02-16T12:06:31.031Z,58.69
2023-02-16T12:11:57.706Z,58.29
2023-02-16T12:17:17.646Z,58.20
2023-02-16T12:22:47.718Z,58.75
2023-02-16T12:27:57.963Z,59.49
2023-02-16T12:33:10.821Z,57.32
2023-02-16T12:38:41.484Z,57.99
2023-02-16T12:44:02.923Z,57.92
2023-02-16T12:49:14.025Z,57.92
2023-02-16T12:54:25.302Z,57.48
2023-02-16T12:59:42.288Z,58.33
2023-02-16T13:05:10.700Z,58.84
2023-02-16T13:10:24.744Z,59.31
2023-02-16T13:15:35.819Z,59.50
2023-02-16T13:20:41.328Z,58.99
2023-02-16T13:25:58.026Z,59.16
2023-02-16T13:31:29.385Z,58.23
2023-02-16T13:36:49.542Z,58.64
2023-02-16T13:42:00.442Z,59.04
2023-02-16T13:47:04.957Z,59.75
2023-02-16T13:52:11.865Z,60.34
2023-02-16T13:57:18.468Z,60.34
2023-02-16T14:02:54.581Z,59.33
2023-02-16T14:08:18.739Z,60.21
2023-02-16T14:13:33.152Z,60.43
2023-02-16T14:18:53.922Z,60.53
2023-02-16T14:24:03.133Z,60.97
2023-02-16T14:29:17.939Z,61.26
2023-02-16T14:34:30.929Z,61.84
2023-02-16T14:39:33.818Z,62.81
2023-02-16T14:45:00.354Z,63.21
2023-02-16T14:50:50.967Z,63.90
2023-02-16T14:56:16.743Z,64.28
2023-02-16T15:01:21.465Z,64.52
2023-02-16T15:06:32.616Z,65.04
2023-02-16T15:12:00.591Z,65.56
2023-02-16T15:17:08.202Z,66.51
2023-02-16T15:22:25.911Z,66.92
2023-02-16T15:27:29.056Z,67.08
2023-02-16T15:32:32.180Z,67.20
2023-02-16T15:37:34.027Z,67.57
2023-02-16T15:42:37.465Z,68.20
2023-02-16T15:47:39.301Z,68.79
2023-02-16T15:52:41.057Z,69.69
2023-02-16T15:57:42.858Z,70.41
2023-02-16T16:02:49.935Z,71.18
2023-02-16T16:07:52.421Z,72.41
2023-02-16T16:13:01.771Z,72.95
2023-02-16T16:18:06.134Z,73.88
2023-02-16T16:23:14.156Z,74.73
2023-02-16T16:28:24.806Z,75.82
2023-02-16T16:34:31.765Z,76.66
2023-02-16T16:39:36.187Z,76.92
2023-02-16T16:44:41.153Z,77.60
2023-02-16T16:49:51.536Z,77.95
2023-02-16T16:54:53.265Z,78.90
2023-02-16T16:59:55.219Z,79.36
2023-02-16T17:04:56.976Z,80.06
2023-02-16T17:10:00.015Z,80.16
2023-02-16T17:15:02.690Z,81.16
2023-02-16T17:20:13.414Z,81.21
2023-02-16T17:25:15.520Z,82.18
2023-02-16T17:30:17.492Z,82.48
2023-02-16T17:35:22.262Z,82.78
2023-02-16T17:40:26.356Z,83.04
2023-02-16T17:45:31.160Z,83.19
2023-02-16T17:50:33.273Z,83.54
2023-02-16T17:55:35.267Z,83.86
2023-02-16T18:00:38.528Z,83.98
2023-02-16T18:05:41.612Z,84.11
2023-02-16T18:10:46.941Z,84.93
2023-02-16T18:15:50.437Z,84.91
2023-02-16T18:20:52.455Z,85.38
2023-02-16T18:25:54.400Z,85.45
2023-02-16T18:30:56.720Z,86.13
2023-02-16T18:35:59.984Z,86.34
2023-02-16T18:41:01.969Z,86.24
2023-02-16T18:46:07.877Z,86.41
2023-02-16T18:51:11.673Z,86.59
2023-02-16T18:56:14.017Z,86.67
2023-02-16T19:01:30.818Z,87.24
2023-02-16T19:06:33.972Z,87.63
2023-02-16T19:11:36.455Z,87.55
2023-02-16T19:16:39.461Z,87.63
2023-02-16T19:21:44.400Z,88.24
2023-02-16T19:26:46.539Z,88.07
2023-02-16T19:31:49.362Z,88.04
2023-02-16T19:36:51.201Z,88.40
2023-02-16T19:41:53.078Z,88.60
2023-02-16T19:46:54.767Z,88.71
2023-02-16T19:51:56.640Z,89.00
2023-02-16T19:56:58.724Z,88.93
2023-02-16T20:02:00.978Z,89.02
2023-02-16T20:07:06.650Z,89.03
2023-02-16T20:12:08.645Z,89.18
2023-02-16T20:17:10.612Z,89.21
2023-02-16T20:22:13.924Z,89.63
2023-02-16T20:27:15.674Z,89.66
2023-02-16T20:32:17.716Z,89.98
2023-02-16T20:37:20.992Z,90.33
2023-02-16T20:42:22.889Z,90.21
2023-02-16T20:47:24.748Z,90.35
2023-02-16T20:52:26.618Z,90.30
2023-02-16T20:57:39.037Z,90.24
2023-02-16T21:02:43.869Z,90.74
2023-02-16T21:07:48.033Z,90.69
2023-02-16T21:12:51.163Z,90.42
2023-02-16T21:17:52.944Z,91.07
2023-02-16T21:22:54.613Z,91.94
2023-02-16T21:27:56.246Z,91.71
2023-02-16T21:32:58.348Z,91.47
2023-02-16T21:38:00.461Z,92.14
2023-02-16T21:43:02.298Z,92.44
2023-02-16T21:48:23.378Z,92.85
2023-02-16T21:53:25.425Z,93.16
2023-02-16T21:58:27.328Z,92.81
2023-02-16T22:03:29.239Z,92.92
2023-02-16T22:08:33.607Z,92.97
2023-02-16T22:13:41.409Z,92.93
2023-02-16T22:18:43.917Z,93.24
2023-02-16T22:23:47.647Z,93.08
2023-02-16T22:28:50.573Z,92.99
2023-02-16T22:34:03.895Z,92.50
2023-02-16T22:39:06.550Z,92.67
2023-02-16T22:44:09.741Z,92.52
2023-02-16T22:49:14.491Z,92.38
2023-02-16T22:54:16.310Z,92.20
2023-02-16T22:59:18.013Z,92.60
2023-02-16T23:04:19.780Z,92.70
2023-02-16T23:09:22.348Z,92.78
2023-02-16T23:14:24.034Z,92.82
2023-02-16T23:19:26.838Z,92.81
2023-02-16T23:24:28.633Z,93.10
2023-02-16T23:29:30.375Z,92.96
2023-02-16T23:34:32.072Z,93.66
2023-02-16T23:39:33.673Z,94.13
2023-02-16T23:44:35.380Z,94.08
2023-02-16T23:49:37.126Z,94.30
2023-02-16T23:54:38.872Z,94.19
2023-02-16T23:59:40.618Z,94.25
